Eden, UT (84310)

5:50 AM MST on February 01, 2015 (GMT -0700)
Eden Acres | Change Station
CLOSE
Current Station
Personal Weather Station
Location: Eden, UT
Elevation: 4980 ft
Nearby Weather Stations

Elev 4980 ft 41.31 °N, 111.82 °W | Updated 1 minute ago

Clear
Clear
19.1 °F
Feels Like 19 °F
N
0.0
Wind Variable Wind from WNW
Gusts 0.0 mph

Today
High -- | Low -- °F
--% Chance of Precip.
Yesterday
High -- | Low -- °F
Precip. -- in
7:38 AM 5:43 PM
Waxing Gibbous, 95% visible
Pressure 30.20 in
Visibility 10.0 miles
Clouds Clear
Windchill 19 °F
Dew Point 16 °F
Humidity 89%
Rainfall 0.00 in
Snow Depth Not available.
UV 0 out of 12
Pollen .10 out of 12
Air Quality Not available.
Flu Activity Not available.
METAR KOGD 011153Z 17007KT 10SM CLR M02/M04 A3019 RMK AO2 SLP227 T10221044 11006 21028 53007

More Conditions Fewer Conditions

Pressure 30.20 in
Visibility 10.0 miles
Clouds Clear
Windchill 19 °F
Dew Point 16 °F
Humidity 89%
Rainfall 0.00 in
Snow Depth Not available.
UV 0 out of 12
Pollen .10 out of 12
Air Quality Not available.
Flu Activity Not available.
METAR KOGD 011153Z 17007KT 10SM CLR M02/M04 A3019 RMK AO2 SLP227 T10221044 11006 21028 53007

More Conditions Fewer Conditions

10-Day Weather Forecast

Almanac

Astronomy

Feb. 01, 2015 Rise Set
Actual Time
Civil Twilight
Nautical Twilight
Astronomical Twilight
Moon
Length of Visible Light
Length of Day
Tomorrow will be .
, % of the Moon is Illuminated

Today's Extremes

State Highs State Lows

Community

WunderPhotos

Upload Photos

1,792,353 photos uploaded!

WunderBlogs® & News

Nearby

Air Quality

  Air Quality AQ Index Pollutant
Not available.

Snow Depth

Station Depth Elevation

Earthquake Activity

City Distance Mag. Time & Date
Minimum magnitude displayed is 2.5.

Coastal Water Temperatures

Place Temperature

Nearby Weather Stations